createdAt,value
2023-04-16T00:01:33.088Z,100.00
2023-04-16T00:04:00.035Z,100.00
2023-04-16T00:06:27.761Z,100.00
2023-04-16T00:08:54.337Z,100.00
2023-04-16T00:11:21.042Z,100.00
2023-04-16T00:13:47.607Z,100.00
2023-04-16T00:16:14.290Z,100.00
2023-04-16T00:18:40.897Z,100.00
2023-04-16T00:21:07.776Z,100.00
2023-04-16T00:24:08.731Z,100.00
2023-04-16T00:30:16.528Z,100.00
2023-04-16T00:33:11.294Z,100.00
2023-04-16T00:38:52.296Z,100.00
2023-04-16T00:44:02.949Z,100.00
2023-04-16T00:46:39.333Z,100.00
2023-04-16T00:49:35.359Z,100.00
2023-04-16T01:06:39.753Z,100.00
2023-04-16T01:09:44.016Z,100.00
2023-04-16T01:33:47.190Z,100.00
2023-04-16T01:36:35.172Z,100.00
2023-04-16T01:39:09.813Z,100.00
2023-04-16T01:41:51.762Z,100.00
2023-04-16T01:44:26.001Z,100.00
2023-04-16T01:46:57.196Z,100.00
2023-04-16T01:49:25.770Z,100.00
2023-04-16T01:52:03.728Z,100.00
2023-04-16T01:54:34.370Z,100.00
2023-04-16T01:57:05.348Z,100.00
2023-04-16T01:59:35.148Z,100.00
2023-04-16T02:02:14.295Z,100.00
2023-04-16T02:04:55.549Z,100.00
2023-04-16T02:07:39.616Z,100.00
2023-04-16T02:11:14.770Z,100.00
2023-04-16T02:13:52.871Z,100.00
2023-04-16T02:17:18.691Z,100.00
2023-04-16T02:23:09.537Z,100.00
2023-04-16T02:26:01.300Z,100.00
2023-04-16T02:28:42.606Z,100.00
2023-04-16T02:31:27.420Z,100.00
2023-04-16T02:34:11.884Z,100.00
2023-04-16T02:36:44.134Z,100.00
2023-04-16T02:39:23.884Z,100.00
2023-04-16T02:42:03.540Z,100.00
2023-04-16T02:44:32.880Z,100.00
2023-04-16T02:47:26.987Z,100.00
2023-04-16T02:50:02.562Z,100.00
2023-04-16T02:55:32.063Z,100.00
2023-04-16T03:00:57.294Z,100.00
2023-04-16T03:03:44.016Z,100.00
2023-04-16T03:06:21.449Z,100.00
2023-04-16T03:09:49.916Z,100.00
2023-04-16T03:15:29.566Z,100.00
2023-04-16T03:18:08.163Z,100.00
2023-04-16T03:23:52.796Z,100.00
2023-04-16T03:26:19.487Z,100.00
2023-04-16T03:28:46.060Z,100.00
2023-04-16T03:31:13.261Z,100.00
2023-04-16T03:33:39.769Z,100.00
2023-04-16T03:38:50.600Z,100.00
2023-04-16T03:41:21.981Z,100.00
2023-04-16T03:43:54.040Z,100.00
2023-04-16T03:46:23.933Z,100.00
2023-04-16T03:48:50.636Z,100.00
2023-04-16T03:51:20.284Z,100.00
2023-04-16T03:53:47.003Z,100.00
2023-04-16T03:56:13.940Z,100.00
2023-04-16T03:58:51.870Z,100.00
2023-04-16T04:01:20.739Z,100.00
2023-04-16T04:06:57.069Z,100.00
2023-04-16T04:09:35.288Z,100.00
2023-04-16T04:12:12.761Z,100.00
2023-04-16T04:14:49.005Z,100.00
2023-04-16T04:17:15.730Z,100.00
2023-04-16T04:19:50.705Z,100.00
2023-04-16T04:22:31.393Z,100.00
2023-04-16T04:25:13.067Z,100.00
2023-04-16T04:28:01.656Z,100.00
2023-04-16T04:34:27.449Z,100.00
2023-04-16T04:40:18.293Z,100.00
2023-04-16T04:43:36.351Z,100.00
2023-04-16T04:46:46.709Z,100.00
2023-04-16T04:49:49.088Z,100.00
2023-04-16T04:52:25.238Z,100.00
2023-04-16T04:55:04.963Z,100.00
2023-04-16T04:58:02.955Z,100.00
2023-04-16T05:00:40.734Z,100.00
2023-04-16T05:03:16.673Z,100.00
2023-04-16T05:05:58.669Z,100.00
2023-04-16T05:08:26.773Z,100.00
2023-04-16T05:10:55.332Z,100.00
2023-04-16T05:13:23.494Z,100.00
2023-04-16T05:15:53.208Z,100.00
2023-04-16T05:18:25.022Z,100.00
2023-04-16T05:21:05.809Z,100.00
2023-04-16T05:23:37.241Z,100.00
2023-04-16T05:26:05.671Z,100.00
2023-04-16T05:28:35.043Z,100.00
2023-04-16T05:31:04.423Z,100.00
2023-04-16T05:33:36.174Z,100.00
2023-04-16T05:36:08.987Z,100.00
2023-04-16T05:38:41.997Z,100.00
2023-04-16T05:41:08.437Z,100.00
2023-04-16T05:43:34.850Z,100.00
2023-04-16T05:46:01.357Z,100.00
2023-04-16T05:48:27.784Z,100.00
2023-04-16T05:50:54.194Z,100.00
2023-04-16T05:53:20.695Z,100.00
2023-04-16T05:55:47.153Z,100.00
2023-04-16T05:58:13.550Z,100.00
2023-04-16T06:00:40.649Z,100.00
2023-04-16T06:03:07.316Z,100.00
2023-04-16T06:05:33.870Z,100.00
2023-04-16T06:08:00.373Z,100.00
2023-04-16T06:10:26.878Z,100.00
2023-04-16T06:12:53.333Z,100.00
2023-04-16T06:15:19.756Z,100.00
2023-04-16T06:17:46.308Z,100.00
2023-04-16T06:20:13.254Z,100.00
2023-04-16T06:22:39.787Z,100.00
2023-04-16T06:25:06.540Z,100.00
2023-04-16T06:27:32.908Z,100.00
2023-04-16T06:29:59.288Z,100.00
2023-04-16T06:32:25.960Z,100.00
2023-04-16T06:34:52.389Z,100.00
2023-04-16T06:37:18.761Z,100.00
2023-04-16T06:39:45.212Z,100.00
2023-04-16T06:42:11.676Z,100.00
2023-04-16T06:44:38.184Z,100.00
2023-04-16T06:47:04.824Z,100.00
2023-04-16T06:49:31.615Z,100.00
2023-04-16T06:51:58.075Z,100.00
2023-04-16T06:54:24.441Z,100.00
2023-04-16T06:56:50.819Z,100.00
2023-04-16T06:59:17.196Z,100.00
2023-04-16T07:01:43.658Z,100.00
2023-04-16T07:04:10.899Z,100.00
2023-04-16T07:06:37.352Z,100.00
2023-04-16T07:09:03.829Z,100.00
2023-04-16T07:11:30.308Z,100.00
2023-04-16T07:13:57.694Z,100.00
2023-04-16T07:16:24.281Z,100.00
2023-04-16T07:18:50.730Z,100.00
2023-04-16T07:21:17.236Z,100.00
2023-04-16T07:23:43.672Z,100.00
2023-04-16T07:26:11.480Z,100.00
2023-04-16T07:28:37.940Z,100.00
2023-04-16T07:31:04.448Z,100.00
2023-04-16T07:33:32.991Z,100.00
2023-04-16T07:35:59.395Z,100.00
2023-04-16T07:38:25.780Z,100.00
2023-04-16T07:40:52.203Z,100.00
2023-04-16T07:43:19.625Z,100.00
2023-04-16T07:45:46.080Z,100.00
2023-04-16T07:48:12.504Z,100.00
2023-04-16T07:50:38.952Z,100.00
2023-04-16T07:53:07.556Z,100.00
2023-04-16T07:55:33.926Z,100.00
2023-04-16T07:58:00.454Z,100.00
2023-04-16T08:00:26.943Z,100.00
2023-04-16T08:02:53.423Z,100.00
2023-04-16T08:05:19.978Z,100.00
2023-04-16T08:07:46.428Z,100.00
2023-04-16T08:10:13.002Z,100.00
2023-04-16T08:12:40.781Z,100.00
2023-04-16T08:15:08.001Z,100.00
2023-04-16T08:17:35.387Z,100.00
2023-04-16T08:20:01.908Z,100.00
2023-04-16T08:22:28.365Z,100.00
2023-04-16T08:24:54.783Z,100.00
2023-04-16T08:27:21.243Z,100.00
2023-04-16T08:29:48.431Z,100.00
2023-04-16T08:32:15.060Z,100.00
2023-04-16T08:34:41.936Z,100.00
2023-04-16T08:37:08.547Z,100.00
2023-04-16T08:39:35.363Z,100.00
2023-04-16T08:42:05.569Z,100.00
2023-04-16T08:44:34.926Z,100.00
2023-04-16T08:47:02.323Z,100.00
2023-04-16T08:49:29.814Z,100.00
2023-04-16T08:51:57.012Z,100.00
2023-04-16T08:54:42.793Z,100.00
2023-04-16T08:57:11.865Z,100.00
2023-04-16T08:59:38.956Z,100.00
2023-04-16T09:02:06.911Z,100.00
2023-04-16T09:04:34.358Z,100.00
2023-04-16T09:07:04.501Z,100.00
2023-04-16T09:09:33.379Z,100.00
2023-04-16T09:12:01.152Z,96.66
2023-04-16T09:14:27.544Z,99.68
2023-04-16T09:16:55.632Z,98.56
2023-04-16T09:19:22.935Z,97.87
2023-04-16T09:21:49.796Z,98.57
2023-04-16T09:24:16.473Z,99.16
2023-04-16T09:26:45.846Z,99.99
2023-04-16T09:29:12.402Z,99.90
2023-04-16T09:31:38.933Z,100.00
2023-04-16T09:34:07.358Z,99.07
2023-04-16T09:36:34.719Z,98.64
2023-04-16T09:39:01.916Z,98.92
2023-04-16T09:41:32.176Z,97.57
2023-04-16T09:44:04.492Z,95.30
2023-04-16T09:46:34.558Z,97.93
2023-04-16T09:49:18.564Z,97.02
2023-04-16T09:51:48.501Z,94.18
2023-04-16T09:54:15.549Z,96.70
2023-04-16T09:56:43.700Z,94.11
2023-04-16T09:59:20.962Z,96.53
2023-04-16T10:01:49.510Z,92.33
2023-04-16T10:04:18.875Z,95.70
2023-04-16T10:07:02.094Z,96.42
2023-04-16T10:09:32.643Z,95.25
2023-04-16T10:11:59.133Z,98.36
2023-04-16T10:14:25.841Z,97.63
2023-04-16T10:16:53.166Z,98.41
2023-04-16T10:19:20.602Z,100.00
2023-04-16T10:21:47.816Z,100.00
2023-04-16T10:24:16.598Z,100.00
2023-04-16T10:26:44.333Z,100.00
2023-04-16T10:29:13.356Z,100.00
2023-04-16T10:31:41.787Z,100.00
2023-04-16T10:34:09.400Z,100.00
2023-04-16T10:36:40.087Z,100.00
2023-04-16T10:39:12.180Z,100.00
2023-04-16T10:41:40.023Z,100.00
2023-04-16T10:44:12.375Z,100.00
2023-04-16T10:46:43.055Z,100.00
2023-04-16T10:49:23.294Z,100.00
2023-04-16T10:51:56.962Z,100.00
2023-04-16T10:54:28.410Z,100.00
2023-04-16T10:57:04.727Z,99.52
2023-04-16T10:59:34.726Z,95.91
2023-04-16T11:02:06.880Z,95.87
2023-04-16T11:04:36.217Z,97.32
2023-04-16T11:07:07.043Z,99.35
2023-04-16T11:09:56.574Z,97.62
2023-04-16T11:12:33.412Z,98.16
2023-04-16T11:15:02.167Z,97.80
2023-04-16T11:17:31.962Z,99.18
2023-04-16T11:19:58.590Z,96.06
2023-04-16T11:22:25.850Z,96.74
2023-04-16T11:24:56.637Z,98.41
2023-04-16T11:27:24.246Z,100.00
2023-04-16T11:30:00.181Z,100.00
2023-04-16T11:32:26.896Z,100.00
2023-04-16T11:34:53.429Z,100.00
2023-04-16T11:37:21.982Z,100.00
2023-04-16T11:39:52.489Z,100.00
2023-04-16T11:42:22.580Z,100.00
2023-04-16T11:44:56.687Z,97.77
2023-04-16T11:47:24.453Z,97.03
2023-04-16T11:49:51.511Z,99.79
2023-04-16T11:52:33.404Z,98.48
2023-04-16T11:54:59.892Z,96.72
2023-04-16T11:57:31.034Z,98.10
2023-04-16T12:00:02.492Z,97.73
2023-04-16T12:02:46.043Z,98.06
2023-04-16T12:05:31.926Z,95.98
2023-04-16T12:07:59.601Z,94.22
2023-04-16T12:10:27.152Z,95.99
2023-04-16T12:12:53.561Z,94.14
2023-04-16T12:15:20.027Z,94.02
2023-04-16T12:17:46.499Z,92.98
2023-04-16T12:20:15.286Z,92.50
2023-04-16T12:22:47.453Z,91.64
2023-04-16T12:25:15.886Z,90.18
2023-04-16T12:27:53.055Z,85.18
2023-04-16T12:30:22.847Z,87.11
2023-04-16T12:32:52.038Z,86.46
2023-04-16T12:35:32.771Z,87.87
2023-04-16T12:38:00.397Z,84.44
2023-04-16T12:40:27.445Z,81.90
2023-04-16T12:42:53.891Z,81.94
2023-04-16T12:45:20.655Z,81.99
2023-04-16T12:47:47.636Z,80.79
2023-04-16T12:50:14.129Z,79.53
2023-04-16T12:52:40.655Z,78.13
2023-04-16T12:55:07.313Z,80.52
2023-04-16T12:57:33.765Z,81.78
2023-04-16T13:00:00.232Z,79.13
2023-04-16T13:02:27.411Z,77.30
2023-04-16T13:04:54.488Z,76.43
2023-04-16T13:07:21.417Z,78.30
2023-04-16T13:09:48.641Z,78.60
2023-04-16T13:12:16.062Z,80.43
2023-04-16T13:14:44.939Z,80.46
2023-04-16T13:17:11.518Z,79.63
2023-04-16T13:19:37.934Z,80.79
2023-04-16T13:22:04.316Z,82.67
2023-04-16T13:24:30.706Z,85.19
2023-04-16T13:26:57.208Z,83.43
2023-04-16T13:29:23.607Z,85.56
2023-04-16T13:31:50.166Z,85.46
2023-04-16T13:34:16.755Z,87.43
2023-04-16T13:36:43.136Z,87.70
2023-04-16T13:39:12.598Z,89.36
2023-04-16T13:41:39.272Z,89.43
2023-04-16T13:44:05.805Z,88.47
2023-04-16T13:46:32.458Z,89.38
2023-04-16T13:48:59.099Z,88.18
2023-04-16T13:51:27.013Z,86.40
2023-04-16T13:53:55.348Z,87.03
2023-04-16T13:56:21.833Z,86.71
2023-04-16T13:58:48.556Z,87.27
2023-04-16T14:01:15.024Z,87.52
2023-04-16T14:03:42.104Z,85.87
2023-04-16T14:06:08.607Z,84.30
2023-04-16T14:08:35.052Z,85.37
2023-04-16T14:11:02.082Z,86.63
2023-04-16T14:13:28.520Z,85.10
2023-04-16T14:15:55.049Z,86.71
2023-04-16T14:18:21.591Z,87.05
2023-04-16T14:20:48.171Z,87.66
2023-04-16T14:23:14.590Z,89.31
2023-04-16T14:25:40.995Z,88.98
2023-04-16T14:28:08.870Z,89.29
2023-04-16T14:30:35.350Z,90.17
2023-04-16T14:33:02.696Z,88.05
2023-04-16T14:35:29.346Z,89.73
2023-04-16T14:37:55.991Z,90.19
2023-04-16T14:40:22.386Z,90.56
2023-04-16T14:42:48.827Z,89.63
2023-04-16T14:45:15.917Z,88.06
2023-04-16T14:47:47.043Z,89.97
2023-04-16T14:50:14.359Z,88.94
2023-04-16T14:52:40.937Z,92.41
2023-04-16T14:55:07.647Z,91.58
2023-04-16T14:57:34.596Z,92.91
2023-04-16T15:00:01.236Z,93.78
2023-04-16T15:02:28.232Z,94.30
2023-04-16T15:04:54.795Z,98.70
2023-04-16T15:07:22.092Z,96.75
2023-04-16T15:09:48.546Z,95.23
2023-04-16T15:12:15.318Z,96.86
2023-04-16T15:14:43.200Z,95.36
2023-04-16T15:17:09.955Z,95.87
2023-04-16T15:19:36.689Z,97.56
2023-04-16T15:22:03.175Z,96.13
2023-04-16T15:24:29.614Z,98.07
2023-04-16T15:26:56.298Z,97.22
2023-04-16T15:29:22.716Z,98.72
2023-04-16T15:31:49.169Z,98.89
2023-04-16T15:34:15.782Z,100.00
2023-04-16T15:36:42.194Z,100.00
2023-04-16T15:39:09.741Z,100.00
2023-04-16T15:41:46.966Z,100.00
2023-04-16T15:44:23.746Z,100.00
2023-04-16T15:46:50.365Z,100.00
2023-04-16T15:49:16.872Z,100.00
2023-04-16T15:51:43.272Z,100.00
2023-04-16T15:54:09.957Z,100.00
2023-04-16T15:56:36.413Z,100.00
2023-04-16T15:59:03.794Z,100.00
2023-04-16T16:01:31.075Z,100.00
2023-04-16T16:03:57.723Z,100.00
2023-04-16T16:06:24.472Z,100.00
2023-04-16T16:08:51.107Z,100.00
2023-04-16T16:11:17.598Z,100.00
2023-04-16T16:13:44.034Z,100.00
2023-04-16T16:16:10.638Z,100.00
2023-04-16T16:18:37.330Z,100.00
2023-04-16T16:21:03.746Z,100.00
2023-04-16T16:23:30.402Z,100.00
2023-04-16T16:25:56.829Z,100.00
2023-04-16T16:28:25.017Z,100.00
2023-04-16T16:30:53.816Z,100.00
2023-04-16T16:33:20.741Z,100.00
2023-04-16T16:35:47.212Z,100.00
2023-04-16T16:38:13.651Z,100.00
2023-04-16T16:40:40.020Z,100.00
2023-04-16T16:43:06.499Z,100.00
2023-04-16T16:45:32.921Z,100.00
2023-04-16T16:47:59.379Z,100.00
2023-04-16T16:50:26.144Z,100.00
2023-04-16T16:52:52.628Z,100.00
2023-04-16T16:55:20.174Z,100.00
2023-04-16T16:57:46.545Z,100.00
2023-04-16T17:00:14.379Z,100.00
2023-04-16T17:02:41.120Z,100.00
2023-04-16T17:05:08.084Z,100.00
2023-04-16T17:07:34.614Z,100.00
2023-04-16T17:10:03.810Z,100.00
2023-04-16T17:12:31.941Z,100.00
2023-04-16T17:14:58.490Z,100.00
2023-04-16T17:17:26.801Z,100.00
2023-04-16T17:19:53.727Z,100.00
2023-04-16T17:22:20.370Z,100.00
2023-04-16T17:24:47.158Z,100.00
2023-04-16T17:27:13.603Z,100.00
2023-04-16T17:29:40.101Z,100.00
2023-04-16T17:32:06.583Z,100.00
2023-04-16T17:34:33.112Z,100.00
2023-04-16T17:36:59.520Z,100.00
2023-04-16T17:39:26.260Z,100.00
2023-04-16T17:41:54.748Z,100.00
2023-04-16T17:44:23.055Z,100.00
2023-04-16T17:46:49.522Z,100.00
2023-04-16T17:49:16.144Z,100.00
2023-04-16T17:51:44.570Z,100.00
2023-04-16T17:54:11.322Z,100.00
2023-04-16T17:56:38.082Z,100.00
2023-04-16T17:59:05.075Z,100.00
2023-04-16T18:01:31.532Z,100.00
2023-04-16T18:03:58.194Z,100.00
2023-04-16T18:06:24.917Z,100.00
2023-04-16T18:08:51.306Z,100.00
2023-04-16T18:11:17.685Z,100.00
2023-04-16T18:13:44.117Z,100.00
2023-04-16T18:16:16.535Z,100.00
2023-04-16T18:18:44.067Z,100.00
2023-04-16T18:21:10.659Z,100.00
2023-04-16T18:23:37.088Z,100.00
2023-04-16T18:26:03.736Z,100.00
2023-04-16T18:28:30.249Z,100.00
2023-04-16T18:30:59.023Z,100.00
2023-04-16T18:33:50.002Z,100.00
2023-04-16T18:36:12.200Z,100.00
2023-04-16T18:38:49.404Z,100.00
2023-04-16T18:41:23.900Z,100.00
2023-04-16T18:43:50.592Z,100.00
2023-04-16T18:46:17.085Z,100.00
2023-04-16T18:48:46.931Z,100.00
2023-04-16T18:51:14.276Z,100.00
2023-04-16T18:53:44.196Z,100.00
2023-04-16T18:56:11.067Z,100.00
2023-04-16T18:58:37.892Z,100.00
2023-04-16T19:01:04.869Z,100.00
2023-04-16T19:03:32.108Z,100.00
2023-04-16T19:05:58.800Z,100.00
2023-04-16T19:08:25.292Z,100.00
2023-04-16T19:10:51.754Z,100.00
2023-04-16T19:13:18.261Z,100.00
2023-04-16T19:15:44.678Z,100.00
2023-04-16T19:18:11.108Z,100.00
2023-04-16T19:20:37.930Z,100.00
2023-04-16T19:23:06.305Z,100.00
2023-04-16T19:25:32.731Z,100.00
2023-04-16T19:27:59.198Z,100.00
2023-04-16T19:30:26.383Z,100.00
2023-04-16T19:32:55.109Z,100.00
2023-04-16T19:35:22.002Z,100.00
2023-04-16T19:37:48.416Z,100.00
2023-04-16T19:40:14.913Z,100.00
2023-04-16T19:42:41.366Z,100.00
2023-04-16T19:45:08.105Z,100.00
2023-04-16T19:47:34.526Z,100.00
2023-04-16T19:50:00.923Z,100.00
2023-04-16T19:52:27.331Z,100.00
2023-04-16T19:54:53.718Z,100.00
2023-04-16T19:57:20.377Z,100.00
2023-04-16T19:59:46.797Z,100.00
2023-04-16T20:02:13.266Z,100.00
2023-04-16T20:04:39.767Z,100.00
2023-04-16T20:07:06.362Z,100.00
2023-04-16T20:09:32.745Z,100.00
2023-04-16T20:11:59.141Z,100.00
2023-04-16T20:14:27.953Z,100.00
2023-04-16T20:16:54.491Z,100.00
2023-04-16T20:19:37.818Z,100.00
2023-04-16T20:22:04.700Z,100.00
2023-04-16T20:24:31.262Z,100.00
2023-04-16T20:26:58.083Z,100.00
2023-04-16T20:29:24.512Z,100.00
2023-04-16T20:31:50.894Z,100.00
2023-04-16T20:34:17.609Z,100.00
2023-04-16T20:36:44.077Z,100.00
2023-04-16T20:39:11.053Z,100.00
2023-04-16T20:41:40.476Z,100.00
2023-04-16T20:44:10.056Z,100.00
2023-04-16T20:46:38.670Z,100.00
2023-04-16T20:49:07.732Z,100.00
2023-04-16T20:51:34.150Z,100.00
2023-04-16T20:54:01.025Z,100.00
2023-04-16T20:56:27.491Z,100.00
2023-04-16T20:58:54.009Z,100.00
2023-04-16T21:01:20.666Z,100.00
2023-04-16T21:03:47.216Z,100.00
2023-04-16T21:06:17.955Z,100.00
2023-04-16T21:08:44.467Z,100.00
2023-04-16T21:11:13.653Z,100.00
2023-04-16T21:13:44.476Z,100.00
2023-04-16T21:16:13.461Z,100.00
2023-04-16T21:18:39.866Z,100.00
2023-04-16T21:21:06.638Z,100.00
2023-04-16T21:23:36.059Z,100.00
2023-04-16T21:26:08.577Z,100.00
2023-04-16T21:28:35.039Z,100.00
2023-04-16T21:31:03.732Z,100.00
2023-04-16T21:33:30.502Z,100.00
2023-04-16T21:35:56.954Z,100.00
2023-04-16T21:38:23.653Z,100.00
2023-04-16T21:40:53.823Z,100.00
2023-04-16T21:43:20.482Z,100.00
2023-04-16T21:45:46.961Z,100.00
2023-04-16T21:48:14.030Z,100.00
2023-04-16T21:50:40.419Z,100.00
2023-04-16T21:53:06.941Z,100.00
2023-04-16T21:55:36.893Z,100.00
2023-04-16T21:58:06.687Z,100.00
2023-04-16T22:00:37.938Z,100.00
2023-04-16T22:03:04.529Z,100.00
2023-04-16T22:05:33.169Z,100.00
2023-04-16T22:07:59.525Z,100.00
2023-04-16T22:10:26.029Z,100.00
2023-04-16T22:12:54.860Z,100.00
2023-04-16T22:15:21.344Z,100.00
2023-04-16T22:17:48.495Z,100.00
2023-04-16T22:20:15.628Z,100.00
2023-04-16T22:22:45.158Z,100.00
2023-04-16T22:25:11.666Z,100.00
2023-04-16T22:27:38.481Z,100.00
2023-04-16T22:30:08.503Z,100.00
2023-04-16T22:32:35.001Z,100.00
2023-04-16T22:35:01.900Z,100.00
2023-04-16T22:37:28.319Z,100.00
2023-04-16T22:39:54.744Z,100.00
2023-04-16T22:42:21.540Z,100.00
2023-04-16T22:44:47.933Z,100.00
2023-04-16T22:47:14.495Z,100.00
2023-04-16T22:49:40.929Z,100.00
2023-04-16T22:52:07.399Z,100.00
2023-04-16T22:54:33.887Z,100.00
2023-04-16T22:57:01.101Z,100.00
2023-04-16T22:59:27.610Z,100.00
2023-04-16T23:01:54.320Z,100.00
2023-04-16T23:04:20.950Z,100.00
2023-04-16T23:06:47.523Z,100.00
2023-04-16T23:09:14.220Z,100.00
2023-04-16T23:11:40.909Z,100.00
2023-04-16T23:14:08.319Z,100.00
2023-04-16T23:16:35.737Z,100.00
2023-04-16T23:19:02.222Z,100.00
2023-04-16T23:21:28.775Z,100.00
2023-04-16T23:23:56.620Z,100.00
2023-04-16T23:26:23.338Z,100.00
2023-04-16T23:28:49.869Z,100.00
2023-04-16T23:31:16.475Z,100.00
2023-04-16T23:33:42.959Z,100.00
2023-04-16T23:36:09.806Z,100.00
2023-04-16T23:38:36.263Z,100.00
2023-04-16T23:41:02.773Z,100.00
2023-04-16T23:43:29.225Z,100.00
2023-04-16T23:45:55.873Z,100.00
2023-04-16T23:48:22.393Z,100.00
2023-04-16T23:50:48.876Z,100.00
2023-04-16T23:53:15.714Z,100.00
2023-04-16T23:55:42.156Z,100.00
2023-04-16T23:58:08.735Z,100.00
